Time;durP1;ratioP1;P1;durP2;ratioP2;P2;SDS_P1;SDS_P2;PMS_P1;PMS_P2;Temp;Humidity;BMP_temperature;BMP_pressure;BME280_temperature;BME280_humidity;BME280_pressure;Samples;Min_cycle;Max_cycle;Signal;HPM_P1;HPM_P2
2022/08/19 00:00:38;;;;;;;9.10;4.30;;;;;;;;;;4973439;28;20054;-75
2022/08/19 00:03:06;;;;;;;7.47;4.10;;;;;;;;;;4995992;28;20044;-75
2022/08/19 00:05:32;;;;;;;7.10;4.00;;;;;;;;;;4976446;28;20029;-83
2022/08/19 00:07:59;;;;;;;5.93;4.05;;;;;;;;;;4993873;28;20061;-75
2022/08/19 00:10:25;;;;;;;6.72;3.90;;;;;;;;;;4994012;28;20435;-80
2022/08/19 00:12:51;;;;;;;6.18;4.05;;;;;;;;;;4991774;28;20050;-77
2022/08/19 00:15:18;;;;;;;9.88;4.05;;;;;;;;;;4993388;28;20030;-75
2022/08/19 00:17:45;;;;;;;6.90;3.95;;;;;;;;;;4993669;28;20069;-75
2022/08/19 00:20:12;;;;;;;6.65;3.90;;;;;;;;;;4992922;28;20031;-75
2022/08/19 00:22:40;;;;;;;8.75;4.22;;;;;;;;;;4991878;28;20033;-79
2022/08/19 00:25:07;;;;;;;5.75;3.80;;;;;;;;;;4993116;28;20133;-78
2022/08/19 00:27:33;;;;;;;7.68;4.05;;;;;;;;;;4993136;28;20369;-76
2022/08/19 00:29:59;;;;;;;5.60;3.80;;;;;;;;;;4993851;28;20031;-79
2022/08/19 00:32:25;;;;;;;7.82;3.92;;;;;;;;;;4992864;28;20038;-79
2022/08/19 00:34:53;;;;;;;7.25;4.00;;;;;;;;;;4993800;28;20034;-80
2022/08/19 00:37:23;;;;;;;8.90;3.85;;;;;;;;;;4982140;28;20117;-76
2022/08/19 00:39:50;;;;;;;4.70;3.38;;;;;;;;;;4993101;28;20034;-75
2022/08/19 00:42:17;;;;;;;6.75;4.00;;;;;;;;;;4993309;28;20053;-82
2022/08/19 00:44:43;;;;;;;5.25;3.70;;;;;;;;;;4991724;28;20380;-82
2022/08/19 00:47:10;;;;;;;8.25;4.07;;;;;;;;;;4993801;28;20061;-82
2022/08/19 00:49:38;;;;;;;7.03;3.80;;;;;;;;;;4990344;28;20034;-79
2022/08/19 00:52:04;;;;;;;5.75;3.90;;;;;;;;;;5007658;28;20033;-82
2022/08/19 00:54:31;;;;;;;10.00;4.10;;;;;;;;;;4993472;28;20101;-75
2022/08/19 00:56:57;;;;;;;8.27;4.20;;;;;;;;;;5000311;28;20037;-75
2022/08/19 00:59:24;;;;;;;6.28;4.00;;;;;;;;;;4997826;28;20104;-84
2022/08/19 01:01:50;;;;;;;5.60;4.18;;;;;;;;;;4992438;28;20031;-76
2022/08/19 01:04:16;;;;;;;7.03;3.50;;;;;;;;;;5000372;28;20030;-75
2022/08/19 01:06:42;;;;;;;6.60;3.60;;;;;;;;;;4997934;28;20033;-83
2022/08/19 01:09:08;;;;;;;9.65;4.00;;;;;;;;;;5005261;28;20030;-80
2022/08/19 01:11:36;;;;;;;8.27;3.95;;;;;;;;;;4995789;28;20028;-75
2022/08/19 01:14:02;;;;;;;6.40;3.67;;;;;;;;;;5007606;28;20125;-75
2022/08/19 01:16:29;;;;;;;7.13;4.22;;;;;;;;;;5008074;28;20072;-80
2022/08/19 01:18:56;;;;;;;7.38;3.80;;;;;;;;;;5011198;28;20053;-79
2022/08/19 01:21:22;;;;;;;9.77;3.92;;;;;;;;;;4998513;28;20487;-75
2022/08/19 01:23:48;;;;;;;6.90;3.78;;;;;;;;;;4996768;28;20029;-76
2022/08/19 01:26:17;;;;;;;9.23;4.45;;;;;;;;;;4996782;28;20027;-76
2022/08/19 01:28:44;;;;;;;8.73;4.30;;;;;;;;;;5004473;28;20036;-80
2022/08/19 01:31:14;;;;;;;7.00;4.22;;;;;;;;;;4998857;28;20023;-78
2022/08/19 01:33:40;;;;;;;6.57;4.18;;;;;;;;;;4993281;28;20029;-82
2022/08/19 01:36:13;;;;;;;7.68;4.30;;;;;;;;;;5005637;28;20381;-79
2022/08/19 01:38:41;;;;;;;15.52;4.90;;;;;;;;;;4996146;28;20034;-79
2022/08/19 01:41:07;;;;;;;10.35;4.82;;;;;;;;;;5004654;28;20437;-77
2022/08/19 01:43:34;;;;;;;8.15;4.68;;;;;;;;;;4995582;28;20031;-81
2022/08/19 01:46:00;;;;;;;7.97;4.32;;;;;;;;;;5012603;28;20018;-76
2022/08/19 01:48:29;;;;;;;9.77;4.13;;;;;;;;;;4991504;28;20082;-75
2022/08/19 01:50:55;;;;;;;11.07;4.93;;;;;;;;;;4991951;28;20022;-78
2022/08/19 01:53:21;;;;;;;9.77;4.38;;;;;;;;;;4982233;28;20518;-78
2022/08/19 01:55:48;;;;;;;10.13;4.78;;;;;;;;;;4992603;28;20023;-80
2022/08/19 01:58:23;;;;;;;10.75;4.30;;;;;;;;;;4991263;28;20465;-79
2022/08/19 02:00:49;;;;;;;9.77;4.20;;;;;;;;;;4986224;28;20496;-76
2022/08/19 02:03:15;;;;;;;9.90;4.13;;;;;;;;;;4990946;28;20022;-82
2022/08/19 02:05:42;;;;;;;7.35;4.22;;;;;;;;;;4992804;28;20503;-81
2022/08/19 02:08:09;;;;;;;5.97;4.20;;;;;;;;;;4989702;28;20034;-75
2022/08/19 02:10:38;;;;;;;6.45;4.18;;;;;;;;;;4992287;28;20034;-83
2022/08/19 02:13:04;;;;;;;7.25;4.50;;;;;;;;;;4995591;28;20026;-79
2022/08/19 02:15:31;;;;;;;7.88;4.43;;;;;;;;;;4996396;28;20102;-77
2022/08/19 02:17:58;;;;;;;7.00;4.10;;;;;;;;;;4996278;28;20030;-81
2022/08/19 02:20:24;;;;;;;8.50;4.35;;;;;;;;;;4993363;28;20061;-80
2022/08/19 02:22:50;;;;;;;8.98;4.47;;;;;;;;;;4995422;28;20031;-82
2022/08/19 02:25:16;;;;;;;6.53;4.15;;;;;;;;;;4996057;28;20014;-75
2022/08/19 02:27:42;;;;;;;5.95;4.07;;;;;;;;;;4994490;28;20118;-83
2022/08/19 02:30:11;;;;;;;8.35;4.47;;;;;;;;;;4994136;28;20034;-79
2022/08/19 02:32:37;;;;;;;7.60;4.13;;;;;;;;;;4993959;28;20101;-82
2022/08/19 02:35:03;;;;;;;6.97;4.30;;;;;;;;;;4995333;28;20530;-82
2022/08/19 02:40:14;;;;;;;6.10;3.97;;;;;;;;;;4994766;28;20494;-81
2022/08/19 02:42:42;;;;;;;7.05;4.03;;;;;;;;;;4995366;28;20066;-82
2022/08/19 02:45:09;;;;;;;9.57;4.57;;;;;;;;;;4994429;28;20068;-81
2022/08/19 02:47:35;;;;;;;9.15;4.40;;;;;;;;;;5006552;28;20042;-75
2022/08/19 02:50:02;;;;;;;13.43;4.53;;;;;;;;;;5015465;28;20033;-76
2022/08/19 02:52:28;;;;;;;8.65;4.35;;;;;;;;;;4997847;28;20025;-83
2022/08/19 02:54:57;;;;;;;8.93;4.50;;;;;;;;;;4978296;28;20176;-84
2022/08/19 02:57:23;;;;;;;8.88;4.13;;;;;;;;;;4993240;28;20088;-83
2022/08/19 02:59:49;;;;;;;8.80;4.78;;;;;;;;;;5013356;28;20032;-76
2022/08/19 03:02:16;;;;;;;7.82;4.10;;;;;;;;;;4995631;28;20058;-75
2022/08/19 03:04:42;;;;;;;9.00;3.80;;;;;;;;;;5011029;28;20068;-82
2022/08/19 03:07:09;;;;;;;13.68;4.10;;;;;;;;;;4997152;28;20022;-75
2022/08/19 03:09:37;;;;;;;6.85;4.30;;;;;;;;;;5013920;28;20113;-82
2022/08/19 03:12:03;;;;;;;8.35;3.90;;;;;;;;;;4996544;28;20804;-78
2022/08/19 03:14:31;;;;;;;9.20;4.57;;;;;;;;;;4995020;28;20122;-82
2022/08/19 03:16:57;;;;;;;5.82;4.20;;;;;;;;;;4982764;28;20030;-75
2022/08/19 03:19:23;;;;;;;6.28;3.97;;;;;;;;;;5014309;28;20028;-81
2022/08/19 03:21:50;;;;;;;5.43;4.28;;;;;;;;;;5005411;28;20041;-82
2022/08/19 03:24:17;;;;;;;9.20;4.57;;;;;;;;;;4999784;28;20034;-81
2022/08/19 03:26:46;;;;;;;8.90;4.85;;;;;;;;;;5011268;28;20026;-82
2022/08/19 03:29:12;;;;;;;7.50;4.40;;;;;;;;;;5012470;28;20116;-79
2022/08/19 03:31:39;;;;;;;6.90;4.40;;;;;;;;;;5014243;28;20014;-80
2022/08/19 03:34:05;;;;;;;7.00;3.80;;;;;;;;;;4999456;28;20032;-75
2022/08/19 03:36:31;;;;;;;10.38;4.30;;;;;;;;;;5007980;28;20037;-76
2022/08/19 03:38:59;;;;;;;7.85;4.13;;;;;;;;;;5008531;28;20030;-81
2022/08/19 03:41:26;;;;;;;5.78;4.13;;;;;;;;;;4996079;28;20109;-82
2022/08/19 03:43:53;;;;;;;8.85;4.13;;;;;;;;;;5005581;28;20109;-80
2022/08/19 03:46:20;;;;;;;6.47;3.95;;;;;;;;;;5004266;28;20058;-81
2022/08/19 03:48:47;;;;;;;7.38;4.03;;;;;;;;;;4992034;28;20048;-74
2022/08/19 03:51:19;;;;;;;6.25;3.90;;;;;;;;;;4992667;28;20475;-83
2022/08/19 03:53:45;;;;;;;9.55;4.35;;;;;;;;;;4992714;28;20050;-83
2022/08/19 03:56:12;;;;;;;11.05;4.47;;;;;;;;;;4993938;28;20026;-74
2022/08/19 03:58:39;;;;;;;9.13;3.88;;;;;;;;;;4993844;28;20035;-74
2022/08/19 04:01:09;;;;;;;9.95;3.97;;;;;;;;;;4993337;28;20021;-75
2022/08/19 04:03:36;;;;;;;7.20;3.90;;;;;;;;;;4988704;28;20535;-78
2022/08/19 04:06:15;;;;;;;8.10;4.20;;;;;;;;;;4992038;28;20062;-75
2022/08/19 04:08:42;;;;;;;10.35;4.00;;;;;;;;;;4993781;28;20065;-76
2022/08/19 04:11:11;;;;;;;6.05;4.15;;;;;;;;;;4993904;28;20026;-75
2022/08/19 04:13:38;;;;;;;7.90;4.50;;;;;;;;;;4994172;28;20030;-74
2022/08/19 04:16:04;;;;;;;5.80;4.30;;;;;;;;;;4993155;28;20422;-83
2022/08/19 04:18:31;;;;;;;11.23;4.57;;;;;;;;;;4993283;28;20044;-74
2022/08/19 04:20:57;;;;;;;4.75;3.90;;;;;;;;;;4992055;28;20102;-77
2022/08/19 04:23:23;;;;;;;8.15;4.40;;;;;;;;;;4993694;28;20125;-83
2022/08/19 04:25:49;;;;;;;9.55;4.38;;;;;;;;;;4991992;28;20101;-75
2022/08/19 04:28:15;;;;;;;25.92;5.00;;;;;;;;;;4993189;28;20034;-77
2022/08/19 04:30:59;;;;;;;12.80;4.20;;;;;;;;;;4993946;28;20056;-81
2022/08/19 04:33:28;;;;;;;11.38;4.45;;;;;;;;;;4990674;28;20023;-75
2022/08/19 04:35:54;;;;;;;9.18;4.50;;;;;;;;;;4991624;28;20100;-76
2022/08/19 04:38:24;;;;;;;7.28;4.10;;;;;;;;;;4987867;28;20030;-77
2022/08/19 04:43:37;;;;;;;8.10;4.32;;;;;;;;;;4992611;28;20040;-77
2022/08/19 04:46:11;;;;;;;11.52;4.65;;;;;;;;;;4992656;28;20522;-83
2022/08/19 04:48:38;;;;;;;8.48;4.55;;;;;;;;;;4978116;28;20404;-75
2022/08/19 04:51:07;;;;;;;8.18;4.47;;;;;;;;;;4992874;28;20038;-75
2022/08/19 04:53:33;;;;;;;13.38;5.00;;;;;;;;;;4992854;28;20427;-75
2022/08/19 04:56:01;;;;;;;9.75;5.00;;;;;;;;;;4991144;28;20089;-75
2022/08/19 04:58:28;;;;;;;6.63;4.60;;;;;;;;;;4991433;28;20026;-74
2022/08/19 05:00:54;;;;;;;10.82;4.90;;;;;;;;;;4990025;28;20022;-77
2022/08/19 05:03:21;;;;;;;8.82;4.80;;;;;;;;;;4991884;28;20026;-73
2022/08/19 05:05:48;;;;;;;8.80;4.88;;;;;;;;;;4993073;28;20026;-74
2022/08/19 05:08:19;;;;;;;14.18;4.82;;;;;;;;;;4993705;28;20033;-74
2022/08/19 05:10:46;;;;;;;7.47;5.05;;;;;;;;;;4988526;28;20030;-80
2022/08/19 05:13:13;;;;;;;17.63;5.38;;;;;;;;;;4976620;28;20022;-74
2022/08/19 05:15:39;;;;;;;10.77;4.50;;;;;;;;;;4991908;28;20034;-75
2022/08/19 05:23:34;;;;;;;13.23;4.75;;;;;;;;;;4992704;28;20057;-81
2022/08/19 05:26:00;;;;;;;12.70;4.35;;;;;;;;;;4992855;28;20038;-77
2022/08/19 05:28:27;;;;;;;5.63;3.90;;;;;;;;;;4990827;28;20042;-74
2022/08/19 05:30:55;;;;;;;9.13;4.25;;;;;;;;;;4985619;28;20476;-78
2022/08/19 05:33:21;;;;;;;23.35;5.60;;;;;;;;;;4990310;28;20134;-72
2022/08/19 05:35:49;;;;;;;36.45;6.80;;;;;;;;;;4990994;28;20495;-79
2022/08/19 05:38:15;;;;;;;15.27;5.53;;;;;;;;;;4990809;28;20022;-77
2022/08/19 05:40:41;;;;;;;15.13;6.00;;;;;;;;;;4983732;28;20030;-74
2022/08/19 05:43:08;;;;;;;10.60;5.05;;;;;;;;;;4989482;28;20027;-75
2022/08/19 05:45:38;;;;;;;12.40;4.88;;;;;;;;;;4989805;28;20713;-77
2022/08/19 05:48:04;;;;;;;16.90;4.70;;;;;;;;;;4995876;28;20077;-73
2022/08/19 05:50:30;;;;;;;22.25;9.35;;;;;;;;;;5000113;28;20052;-72
2022/08/19 05:52:57;;;;;;;9.05;4.65;;;;;;;;;;4995896;28;20022;-77
2022/08/19 05:55:23;;;;;;;17.13;5.93;;;;;;;;;;4993459;28;20030;-81
2022/08/19 05:57:49;;;;;;;11.98;5.32;;;;;;;;;;4996364;28;20480;-79
2022/08/19 06:00:16;;;;;;;14.88;5.55;;;;;;;;;;4992844;28;20053;-77
2022/08/19 06:02:42;;;;;;;18.40;5.88;;;;;;;;;;4992730;28;20415;-75
2022/08/19 06:05:09;;;;;;;15.23;5.88;;;;;;;;;;4993819;28;20567;-74
2022/08/19 06:07:39;;;;;;;9.88;5.60;;;;;;;;;;4994437;28;20033;-75
2022/08/19 06:10:07;;;;;;;12.45;6.03;;;;;;;;;;4993875;28;20034;-75
2022/08/19 06:12:35;;;;;;;11.50;5.70;;;;;;;;;;4995086;28;20109;-75
2022/08/19 06:15:02;;;;;;;14.48;5.72;;;;;;;;;;4993634;28;20022;-75
2022/08/19 06:17:29;;;;;;;10.85;5.28;;;;;;;;;;4987086;28;20089;-71
2022/08/19 06:19:56;;;;;;;20.23;6.03;;;;;;;;;;4991534;28;20518;-72
2022/08/19 06:22:22;;;;;;;13.57;6.40;;;;;;;;;;4995745;28;20030;-79
2022/08/19 06:24:52;;;;;;;10.18;5.88;;;;;;;;;;4993491;28;20026;-73
2022/08/19 06:27:18;;;;;;;10.35;5.43;;;;;;;;;;4991608;28;20022;-74
2022/08/19 06:29:46;;;;;;;7.88;5.90;;;;;;;;;;4994812;28;20084;-74
2022/08/19 06:32:14;;;;;;;16.63;5.95;;;;;;;;;;4989004;28;20018;-74
2022/08/19 06:34:40;;;;;;;12.18;5.88;;;;;;;;;;4994604;28;20022;-74
2022/08/19 06:37:07;;;;;;;13.32;5.25;;;;;;;;;;4995324;28;20121;-74
2022/08/19 06:39:38;;;;;;;9.93;6.07;;;;;;;;;;4992716;28;20121;-72
2022/08/19 06:42:06;;;;;;;11.03;5.57;;;;;;;;;;4993114;28;20030;-72
2022/08/19 06:44:34;;;;;;;12.82;6.00;;;;;;;;;;4992854;28;20030;-76
2022/08/19 06:47:02;;;;;;;9.73;6.00;;;;;;;;;;4992458;28;20053;-77
2022/08/19 06:49:30;;;;;;;7.32;5.50;;;;;;;;;;4994415;28;20111;-77
2022/08/19 06:51:57;;;;;;;12.38;5.45;;;;;;;;;;4989479;28;20073;-77
2022/08/19 06:54:24;;;;;;;9.55;5.60;;;;;;;;;;4993030;28;20026;-76
2022/08/19 06:56:50;;;;;;;10.32;5.70;;;;;;;;;;4992300;28;20026;-74
2022/08/19 06:59:18;;;;;;;9.35;5.95;;;;;;;;;;4992808;28;20064;-75
2022/08/19 07:01:47;;;;;;;13.43;5.82;;;;;;;;;;4991293;28;20546;-75
2022/08/19 07:04:15;;;;;;;13.90;5.88;;;;;;;;;;4990163;28;20049;-75
2022/08/19 07:06:41;;;;;;;11.40;6.43;;;;;;;;;;4991638;28;20031;-85
2022/08/19 07:09:08;;;;;;;10.45;5.40;;;;;;;;;;4983833;28;20038;-84
2022/08/19 07:11:34;;;;;;;15.10;6.10;;;;;;;;;;4987425;28;20073;-79
2022/08/19 07:14:01;;;;;;;17.10;6.05;;;;;;;;;;4992914;28;20034;-81
2022/08/19 07:16:27;;;;;;;14.68;5.82;;;;;;;;;;4991810;28;20392;-78
2022/08/19 07:18:54;;;;;;;14.05;5.63;;;;;;;;;;4990504;28;20030;-84
2022/08/19 07:21:22;;;;;;;15.77;5.88;;;;;;;;;;4992748;28;20030;-80
2022/08/19 07:23:48;;;;;;;20.58;6.38;;;;;;;;;;4992013;28;20054;-78
2022/08/19 07:26:15;;;;;;;10.52;6.25;;;;;;;;;;4994095;28;20026;-84
2022/08/19 07:28:42;;;;;;;9.18;5.47;;;;;;;;;;4995540;28;20034;-79
2022/08/19 07:31:10;;;;;;;21.65;6.03;;;;;;;;;;4994156;28;20073;-75
2022/08/19 07:33:36;;;;;;;11.52;5.90;;;;;;;;;;4993136;28;20027;-77
2022/08/19 07:36:07;;;;;;;15.10;6.10;;;;;;;;;;4993496;28;20472;-85
2022/08/19 07:38:33;;;;;;;10.15;5.47;;;;;;;;;;4992215;28;20611;-73
2022/08/19 07:41:00;;;;;;;13.05;6.65;;;;;;;;;;4996251;28;20031;-85
2022/08/19 07:43:26;;;;;;;14.40;5.82;;;;;;;;;;4995439;28;20392;-84
2022/08/19 07:45:56;;;;;;;9.65;5.55;;;;;;;;;;4995031;28;20014;-86
2022/08/19 07:48:25;;;;;;;7.05;5.10;;;;;;;;;;5013064;28;20038;-74
2022/08/19 07:50:52;;;;;;;11.35;5.53;;;;;;;;;;5012275;28;20022;-85
2022/08/19 07:53:19;;;;;;;10.88;5.38;;;;;;;;;;4999425;28;20042;-86
2022/08/19 07:55:45;;;;;;;13.88;5.30;;;;;;;;;;5008055;28;20072;-86
2022/08/19 07:58:13;;;;;;;10.32;5.30;;;;;;;;;;5015195;28;20098;-75
2022/08/19 08:00:39;;;;;;;11.68;5.03;;;;;;;;;;5002291;28;20027;-81
2022/08/19 08:03:05;;;;;;;9.95;5.28;;;;;;;;;;4990272;28;20026;-82
2022/08/19 08:11:09;;;;;;;14.07;5.30;;;;;;;;;;4973782;28;20121;-86
2022/08/19 08:13:35;;;;;;;16.67;5.65;;;;;;;;;;4990899;28;20272;-84
2022/08/19 08:16:02;;;;;;;9.07;5.18;;;;;;;;;;4981160;28;20037;-79
2022/08/19 08:18:28;;;;;;;13.13;5.20;;;;;;;;;;4993428;28;20472;-78
2022/08/19 08:20:55;;;;;;;10.32;5.35;;;;;;;;;;4992623;28;20113;-77
2022/08/19 08:23:25;;;;;;;7.95;4.95;;;;;;;;;;4991152;28;20056;-81
2022/08/19 08:25:54;;;;;;;7.43;4.82;;;;;;;;;;4989663;28;20109;-74
2022/08/19 08:28:21;;;;;;;8.48;4.93;;;;;;;;;;5008092;28;20080;-73
2022/08/19 08:30:48;;;;;;;10.52;4.95;;;;;;;;;;5004549;28;20029;-71
2022/08/19 08:33:18;;;;;;;22.70;5.47;;;;;;;;;;4990949;28;20026;-78
2022/08/19 08:35:45;;;;;;;6.95;4.75;;;;;;;;;;4996735;28;20471;-81
2022/08/19 08:38:12;;;;;;;26.30;5.13;;;;;;;;;;4994724;28;20472;-82
2022/08/19 08:40:50;;;;;;;12.18;5.20;;;;;;;;;;4995753;28;20073;-71
2022/08/19 08:43:23;;;;;;;9.50;4.88;;;;;;;;;;4992497;28;20084;-72
2022/08/19 08:46:27;;;;;;;8.40;4.70;;;;;;;;;;5002151;28;20376;-73
2022/08/19 08:48:56;;;;;;;10.60;4.95;;;;;;;;;;4910919;29;20044;-75
2022/08/19 08:51:28;;;;;;;10.48;5.18;;;;;;;;;;4913854;29;20107;-75
2022/08/19 08:53:54;;;;;;;12.32;5.07;;;;;;;;;;4899094;29;20114;-77
2022/08/19 08:56:20;;;;;;;15.52;5.10;;;;;;;;;;4902595;29;20465;-79
2022/08/19 08:59:00;;;;;;;7.15;4.80;;;;;;;;;;4899781;29;20032;-76
2022/08/19 09:01:26;;;;;;;12.25;5.07;;;;;;;;;;4886388;29;20078;-77
2022/08/19 09:03:52;;;;;;;11.27;5.20;;;;;;;;;;4896007;29;20229;-76
2022/08/19 09:06:39;;;;;;;9.65;5.18;;;;;;;;;;4899238;29;20036;-76
2022/08/19 09:09:13;;;;;;;17.75;5.75;;;;;;;;;;4891430;29;20901;-72
2022/08/19 09:11:39;;;;;;;10.60;4.40;;;;;;;;;;4896213;29;20029;-84
2022/08/19 09:14:11;;;;;;;19.92;4.88;;;;;;;;;;4894835;29;20445;-74
2022/08/19 09:16:40;;;;;;;15.63;5.50;;;;;;;;;;4893894;29;20044;-79
2022/08/19 09:19:07;;;;;;;16.33;5.45;;;;;;;;;;4928779;28;20132;-72
2022/08/19 09:21:34;;;;;;;13.02;4.93;;;;;;;;;;4989984;28;20034;-82
2022/08/19 09:24:00;;;;;;;11.13;4.97;;;;;;;;;;4989428;28;20516;-75
2022/08/19 09:26:27;;;;;;;45.72;6.18;;;;;;;;;;4990519;28;20034;-80
2022/08/19 09:28:54;;;;;;;16.83;5.38;;;;;;;;;;4991458;28;20486;-78
2022/08/19 09:31:23;;;;;;;15.30;4.90;;;;;;;;;;4991005;28;20034;-78
2022/08/19 09:33:49;;;;;;;13.32;5.00;;;;;;;;;;4990033;28;20026;-78
2022/08/19 09:36:18;;;;;;;17.45;4.93;;;;;;;;;;4988521;28;20044;-76
2022/08/19 09:38:44;;;;;;;12.18;4.57;;;;;;;;;;4986356;28;20037;-78
2022/08/19 09:41:13;;;;;;;10.65;4.72;;;;;;;;;;4986053;28;20498;-80
2022/08/19 09:43:39;;;;;;;8.18;4.80;;;;;;;;;;4988580;28;20032;-79
2022/08/19 09:46:06;;;;;;;10.68;4.65;;;;;;;;;;5001254;28;20452;-81
2022/08/19 09:48:35;;;;;;;11.45;4.93;;;;;;;;;;4990006;28;20042;-84
2022/08/19 09:51:21;;;;;;;11.23;4.47;;;;;;;;;;4990286;28;20031;-77
2022/08/19 09:53:49;;;;;;;10.48;4.63;;;;;;;;;;4979174;28;20026;-76
2022/08/19 09:56:17;;;;;;;12.30;4.70;;;;;;;;;;4990280;28;20070;-76
2022/08/19 09:58:43;;;;;;;9.20;5.30;;;;;;;;;;4984537;28;20552;-76
2022/08/19 10:01:09;;;;;;;10.23;5.10;;;;;;;;;;4990197;28;20030;-76
2022/08/19 10:03:36;;;;;;;11.25;4.55;;;;;;;;;;4989697;28;20146;-80
2022/08/19 10:06:03;;;;;;;14.00;4.72;;;;;;;;;;4990062;28;20026;-84
2022/08/19 10:08:32;;;;;;;12.43;4.65;;;;;;;;;;4988558;28;20038;-82
2022/08/19 10:10:59;;;;;;;13.35;4.82;;;;;;;;;;4977147;28;20645;-72
2022/08/19 10:13:26;;;;;;;8.57;4.60;;;;;;;;;;4990063;28;20031;-71
2022/08/19 10:15:53;;;;;;;14.05;4.60;;;;;;;;;;4989376;28;20153;-75
2022/08/19 10:18:20;;;;;;;12.32;4.88;;;;;;;;;;4991634;28;20030;-73
2022/08/19 10:20:47;;;;;;;10.32;4.63;;;;;;;;;;4991890;28;20027;-75
2022/08/19 10:23:14;;;;;;;10.02;4.80;;;;;;;;;;4992002;28;20034;-74
2022/08/19 10:25:41;;;;;;;12.70;5.13;;;;;;;;;;4990112;28;20022;-72
2022/08/19 10:28:07;;;;;;;10.35;4.68;;;;;;;;;;4991655;28;20543;-73
2022/08/19 10:30:34;;;;;;;10.90;4.82;;;;;;;;;;4991840;28;20061;-74
2022/08/19 10:33:00;;;;;;;19.00;4.70;;;;;;;;;;4990536;28;20026;-74
2022/08/19 10:35:28;;;;;;;24.13;5.43;;;;;;;;;;4995346;28;20023;-73
2022/08/19 10:37:54;;;;;;;10.98;4.20;;;;;;;;;;4992128;28;20031;-72
2022/08/19 10:40:20;;;;;;;14.52;4.43;;;;;;;;;;4992458;28;20030;-71
2022/08/19 10:42:46;;;;;;;14.45;4.60;;;;;;;;;;4991799;28;20058;-77
2022/08/19 10:45:12;;;;;;;16.80;5.97;;;;;;;;;;4983861;28;20907;-79
2022/08/19 10:47:38;;;;;;;17.73;5.43;;;;;;;;;;4977240;28;20496;-77
2022/08/19 10:52:50;;;;;;;6.60;4.20;;;;;;;;;;4993699;28;20038;-77
2022/08/19 10:58:03;;;;;;;8.10;4.20;;;;;;;;;;4995121;28;20080;-75
2022/08/19 11:00:31;;;;;;;11.05;4.47;;;;;;;;;;4994385;28;20022;-78
2022/08/19 11:02:57;;;;;;;8.98;4.40;;;;;;;;;;4993731;28;20077;-82
2022/08/19 11:05:23;;;;;;;15.77;4.90;;;;;;;;;;4994130;28;20497;-78
2022/08/19 11:07:50;;;;;;;10.25;4.60;;;;;;;;;;4993942;28;20030;-76
2022/08/19 11:10:18;;;;;;;13.68;4.45;;;;;;;;;;4992877;28;20034;-78
2022/08/19 11:12:46;;;;;;;20.27;4.95;;;;;;;;;;4992153;28;20019;-77
2022/08/19 11:15:12;;;;;;;23.13;4.88;;;;;;;;;;4990818;28;20034;-75
2022/08/19 11:17:43;;;;;;;8.70;4.18;;;;;;;;;;4993630;28;20026;-85
2022/08/19 11:20:10;;;;;;;12.77;4.57;;;;;;;;;;4995200;28;20030;-77
2022/08/19 11:22:36;;;;;;;8.70;4.20;;;;;;;;;;4993253;28;20050;-79
2022/08/19 11:25:02;;;;;;;9.82;4.35;;;;;;;;;;4993258;28;20033;-82
2022/08/19 11:27:28;;;;;;;8.63;4.43;;;;;;;;;;4992169;28;20508;-83
2022/08/19 11:29:54;;;;;;;10.90;4.38;;;;;;;;;;4992841;28;20507;-82
2022/08/19 11:32:21;;;;;;;9.82;3.92;;;;;;;;;;4990246;28;20029;-79
2022/08/19 11:34:47;;;;;;;13.38;4.28;;;;;;;;;;4990303;28;20030;-80
2022/08/19 11:37:13;;;;;;;14.80;4.90;;;;;;;;;;4991918;28;20112;-82
2022/08/19 11:39:39;;;;;;;13.70;5.10;;;;;;;;;;4993005;28;20468;-84
2022/08/19 11:42:54;;;;;;;10.07;4.40;;;;;;;;;;4997411;28;20032;-78
2022/08/19 11:44:52;;;;;;;7.35;4.10;;;;;;;;;;4989537;28;20034;-76
2022/08/19 11:47:18;;;;;;;14.20;5.00;;;;;;;;;;4991874;28;20432;-85
2022/08/19 11:49:45;;;;;;;17.23;4.82;;;;;;;;;;5000547;28;20408;-77
2022/08/19 11:52:12;;;;;;;14.90;4.53;;;;;;;;;;4987688;28;20050;-78
2022/08/19 11:54:38;;;;;;;7.28;4.00;;;;;;;;;;4997892;28;20796;-76
2022/08/19 11:57:04;;;;;;;11.18;4.45;;;;;;;;;;4997764;28;20114;-82
2022/08/19 11:59:31;;;;;;;10.70;4.32;;;;;;;;;;4992207;28;20027;-79
2022/08/19 12:01:57;;;;;;;10.23;4.43;;;;;;;;;;4999636;28;20057;-81
2022/08/19 12:04:24;;;;;;;8.40;4.65;;;;;;;;;;4991056;28;20035;-77
2022/08/19 12:06:50;;;;;;;10.25;3.95;;;;;;;;;;4992612;28;20057;-76
2022/08/19 12:09:17;;;;;;;58.35;6.93;;;;;;;;;;4997068;28;20033;-75
2022/08/19 12:11:43;;;;;;;15.00;4.30;;;;;;;;;;4998927;28;20106;-80
2022/08/19 12:14:11;;;;;;;12.73;3.92;;;;;;;;;;4992977;28;20077;-77
2022/08/19 12:16:37;;;;;;;10.07;4.20;;;;;;;;;;4992758;28;20404;-75
2022/08/19 12:19:04;;;;;;;14.23;4.72;;;;;;;;;;4988808;28;20026;-76
2022/08/19 12:21:31;;;;;;;10.30;4.03;;;;;;;;;;4989563;28;20039;-74
2022/08/19 12:23:59;;;;;;;12.15;3.95;;;;;;;;;;4990943;28;20042;-75
2022/08/19 12:26:27;;;;;;;21.27;4.47;;;;;;;;;;4993970;28;20101;-86
2022/08/19 12:28:53;;;;;;;13.85;4.85;;;;;;;;;;4982636;28;20070;-80
2022/08/19 12:31:19;;;;;;;8.48;3.83;;;;;;;;;;4998516;28;20022;-78
2022/08/19 12:33:46;;;;;;;18.80;4.38;;;;;;;;;;4995137;28;20125;-79
2022/08/19 12:36:13;;;;;;;7.43;4.03;;;;;;;;;;4996681;28;20018;-80
2022/08/19 12:38:39;;;;;;;14.55;4.05;;;;;;;;;;4992415;28;20060;-74
2022/08/19 12:41:07;;;;;;;11.88;4.18;;;;;;;;;;4990127;28;20058;-79
2022/08/19 12:43:34;;;;;;;18.13;4.53;;;;;;;;;;4990131;28;20026;-75
2022/08/19 12:46:00;;;;;;;11.93;3.97;;;;;;;;;;5003769;28;20434;-76
2022/08/19 12:48:27;;;;;;;28.77;5.22;;;;;;;;;;4990801;28;20412;-81
2022/08/19 12:50:53;;;;;;;11.48;4.20;;;;;;;;;;4990604;28;20070;-79
2022/08/19 12:53:20;;;;;;;12.48;4.18;;;;;;;;;;4979495;28;20038;-81
2022/08/19 12:55:46;;;;;;;15.70;4.47;;;;;;;;;;4991973;28;20027;-80
2022/08/19 12:58:12;;;;;;;15.65;4.88;;;;;;;;;;4990535;28;20041;-80
2022/08/19 13:00:41;;;;;;;10.43;4.35;;;;;;;;;;4990773;28;20030;-74
2022/08/19 13:03:07;;;;;;;13.68;4.05;;;;;;;;;;4989269;28;20053;-74
2022/08/19 13:05:34;;;;;;;13.65;4.40;;;;;;;;;;4989642;28;20026;-74
2022/08/19 13:08:00;;;;;;;10.13;3.88;;;;;;;;;;4989910;28;20117;-74
2022/08/19 13:10:34;;;;;;;11.00;4.05;;;;;;;;;;4988744;28;20089;-74
2022/08/19 13:13:01;;;;;;;11.32;4.15;;;;;;;;;;4991517;28;20033;-74
2022/08/19 13:15:28;;;;;;;10.85;4.03;;;;;;;;;;4988301;28;21752;-75
2022/08/19 13:17:55;;;;;;;12.45;3.72;;;;;;;;;;4989070;28;20027;-74
2022/08/19 13:20:21;;;;;;;10.40;4.00;;;;;;;;;;4991776;28;20030;-74
2022/08/19 13:22:48;;;;;;;11.65;4.05;;;;;;;;;;4989816;28;20109;-75
2022/08/19 13:25:16;;;;;;;21.77;5.22;;;;;;;;;;4992563;28;20031;-75
2022/08/19 13:27:42;;;;;;;12.20;4.53;;;;;;;;;;4990380;28;20074;-73
2022/08/19 13:35:40;;;;;;;12.10;4.63;;;;;;;;;;4990248;28;20136;-73
2022/08/19 13:38:06;;;;;;;18.08;4.63;;;;;;;;;;4990382;28;20029;-74
2022/08/19 13:40:33;;;;;;;24.77;5.22;;;;;;;;;;4989485;28;20085;-75
2022/08/19 13:43:00;;;;;;;16.92;5.18;;;;;;;;;;4991679;28;20539;-73
2022/08/19 13:45:26;;;;;;;19.60;5.68;;;;;;;;;;4989751;28;20041;-74
2022/08/19 13:47:55;;;;;;;17.85;6.05;;;;;;;;;;4987368;28;20050;-74
2022/08/19 13:50:25;;;;;;;167.68;14.27;;;;;;;;;;4993961;28;20034;-70
2022/08/19 13:52:51;;;;;;;41.00;6.72;;;;;;;;;;4988791;28;20027;-74
2022/08/19 13:55:17;;;;;;;30.35;6.90;;;;;;;;;;4990801;28;20065;-74
2022/08/19 13:57:44;;;;;;;86.05;8.25;;;;;;;;;;4989533;28;20105;-72
2022/08/19 14:00:12;;;;;;;26.10;6.25;;;;;;;;;;4988187;28;20537;-73
2022/08/19 14:02:38;;;;;;;20.38;6.32;;;;;;;;;;4991511;28;20480;-76
2022/08/19 14:05:05;;;;;;;18.20;5.82;;;;;;;;;;4991137;28;20085;-72
2022/08/19 14:07:31;;;;;;;18.35;5.38;;;;;;;;;;4990934;28;20030;-72
2022/08/19 14:09:57;;;;;;;16.15;5.78;;;;;;;;;;4995060;28;20081;-73
2022/08/19 14:12:24;;;;;;;19.60;5.50;;;;;;;;;;4994920;28;20113;-72
2022/08/19 14:14:50;;;;;;;22.35;5.35;;;;;;;;;;4994152;28;20030;-71
2022/08/19 14:17:16;;;;;;;21.55;6.15;;;;;;;;;;4994346;28;20065;-80
2022/08/19 14:19:42;;;;;;;19.80;5.20;;;;;;;;;;4994446;28;20038;-73
2022/08/19 14:22:09;;;;;;;18.98;5.20;;;;;;;;;;4994564;28;20022;-80
2022/08/19 14:24:35;;;;;;;22.63;5.45;;;;;;;;;;4994675;28;20073;-75
2022/08/19 14:27:03;;;;;;;22.10;5.55;;;;;;;;;;4994438;28;20096;-75
2022/08/19 14:29:29;;;;;;;24.58;5.50;;;;;;;;;;4992784;28;20053;-77
2022/08/19 14:31:58;;;;;;;25.80;5.55;;;;;;;;;;4969166;28;20022;-81
2022/08/19 14:34:24;;;;;;;17.30;5.07;;;;;;;;;;4994047;28;20137;-76
2022/08/19 14:36:51;;;;;;;26.48;5.78;;;;;;;;;;4995740;28;20031;-73
2022/08/19 14:39:17;;;;;;;43.92;6.35;;;;;;;;;;4994372;28;20112;-75
2022/08/19 14:41:43;;;;;;;33.95;5.50;;;;;;;;;;4994884;28;20028;-73
2022/08/19 14:44:12;;;;;;;29.23;5.32;;;;;;;;;;4994829;28;20464;-75
2022/08/19 14:46:38;;;;;;;40.15;5.78;;;;;;;;;;4995236;28;20053;-75
2022/08/19 14:49:04;;;;;;;30.25;5.55;;;;;;;;;;4994613;28;20825;-72
2022/08/19 14:51:31;;;;;;;30.92;5.25;;;;;;;;;;4993567;28;20065;-74
2022/08/19 14:53:57;;;;;;;38.25;5.15;;;;;;;;;;4996650;28;20510;-72
2022/08/19 14:56:25;;;;;;;29.13;5.25;;;;;;;;;;4991529;28;20077;-73
2022/08/19 14:58:52;;;;;;;111.20;8.07;;;;;;;;;;4994193;28;20030;-72
2022/08/19 15:01:20;;;;;;;29.02;6.07;;;;;;;;;;4993662;28;20026;-73
2022/08/19 15:03:46;;;;;;;37.28;5.88;;;;;;;;;;4993285;28;20018;-72